Asahikawa Air Base, Japan

8:59 AM JST on December 22, 2014 (GMT +0900)
Asahikawa | Change Station
CLOSE
Current Station
Airport
Location: Asahikawa Airport,
Elevation: 682 ft
Nearby Weather Stations

Elev 682 ft 43.67 °N, 142.45 °E | Updated 9 minutes ago

Snow Showers
Showers Snow
16 °F
Feels Like 5 °F
N
8
Wind Variable Wind from SSW

Today
High -- | Low -- °F
--% Chance of Precip.
Yesterday
High -- | Low -- °F
Precip. -- in
7:01 AM 3:56 PM
Waning Crescent, 0% visible
Pressure 29.50 in
Visibility 0.6 miles
Clouds
Windchill 5 °F
Dew Point 14 °F
Humidity 93%
Rainfall 0.00 in
Snow Depth Not available.
UV Not available.
Pollen Not available.
Air Quality Not available.
Flu Activity Not available.
SPECI RJEC 212350Z 20007KT 0900 R34/1100VP1800D SHSN VV009 M09/M10 Q0999 RMK A2952

More Conditions Fewer Conditions

Pressure 29.50 in
Visibility 0.6 miles
Clouds
Windchill 5 °F
Dew Point 14 °F
Humidity 93%
Rainfall 0.00 in
Snow Depth Not available.
UV Not available.
Pollen Not available.
Air Quality Not available.
Flu Activity Not available.
SPECI RJEC 212350Z 20007KT 0900 R34/1100VP1800D SHSN VV009 M09/M10 Q0999 RMK A2952

More Conditions Fewer Conditions

10-Day Weather Forecast

Almanac

Astronomy

Dec. 22, 2014 Rise Set
Actual Time
Civil Twilight
Nautical Twilight
Astronomical Twilight
Moon
Length of Visible Light
Length of Day
Tomorrow will be .
, % of the Moon is Illuminated

Today's Extremes

Country Highs Country Lows

Community

WunderPhotos

Upload Photos

1,779,505 photos uploaded!

WunderBlogs® & News

Nearby

Air Quality

  Air Quality AQ Index Pollutant
Not available.

Snow Depth

Station Depth Elevation

Earthquake Activity

City Distance Mag. Time & Date
Minimum magnitude displayed is 2.5.

Coastal Water Temperatures

Place Temperature

Nearby Weather Stations